KVCV/VCV METAR and TAF weather

Enter ICAO airport designator
Station Type Date Time Source
KVCV METAR 2021/09/23 16:45 UTC NOAA

KVCV 231645Z AUTO 12004KT 10SM CLR 23/10 A3004


Station Type Date Time Source
KVCV Decoded METAR 2021/09/23 16:45 UTC NOAA

Victorville, Southern California Logistics Airport, CA, United States (KVCV) 34-35-50N 117-22-58W
Sep 23, 2021 - 12:45 PM EDT / 2021.09.23 1645 UTC
Wind: from the ESE (120 degrees) at 5 MPH (4 KT):0
Visibility: 10 mile(s):0
Sky conditions: clear
Temperature: 73 F (23 C)
Dew Point: 50 F (10 C)
Relative Humidity: 43%
Pressure (altimeter): 30.04 in. Hg (1017 hPa)
ob: KVCV 231645Z AUTO 12004KT 10SM CLR 23/10 A3004
cycle: 17

Station Type Date Time Source
KVCV TAF UTC NOAA

Error!

Example: see airport list